sensor_id;sensor_type;location;lat;lon;timestamp;temperature;humidity
17423;DHT22;8829;47.932;7.810;2023-07-29T00:00:41;17.90;99.90
17423;DHT22;8829;47.932;7.810;2023-07-29T00:03:08;17.90;99.90
17423;DHT22;8829;47.932;7.810;2023-07-29T00:05:36;17.90;99.90
17423;DHT22;8829;47.932;7.810;2023-07-29T00:08:04;17.90;99.90
17423;DHT22;8829;47.932;7.810;2023-07-29T00:10:32;17.90;99.90
17423;DHT22;8829;47.932;7.810;2023-07-29T00:12:59;17.90;99.90
17423;DHT22;8829;47.932;7.810;2023-07-29T00:15:25;18.00;99.90
17423;DHT22;8829;47.932;7.810;2023-07-29T00:17:52;18.00;99.90
17423;DHT22;8829;47.932;7.810;2023-07-29T00:20:19;18.00;99.90
17423;DHT22;8829;47.932;7.810;2023-07-29T00:22:45;17.90;99.90
17423;DHT22;8829;47.932;7.810;2023-07-29T00:25:16;17.80;99.90
17423;DHT22;8829;47.932;7.810;2023-07-29T00:27:43;17.70;99.90
17423;DHT22;8829;47.932;7.810;2023-07-29T00:30:10;17.70;99.90
17423;DHT22;8829;47.932;7.810;2023-07-29T00:32:37;17.80;99.90
17423;DHT22;8829;47.932;7.810;2023-07-29T00:35:05;17.90;99.90
17423;DHT22;8829;47.932;7.810;2023-07-29T00:37:32;18.00;99.90
17423;DHT22;8829;47.932;7.810;2023-07-29T00:39:58;18.00;99.90
17423;DHT22;8829;47.932;7.810;2023-07-29T00:42:26;18.10;99.90
17423;DHT22;8829;47.932;7.810;2023-07-29T00:44:53;18.10;99.90
17423;DHT22;8829;47.932;7.810;2023-07-29T00:47:20;18.10;99.90
17423;DHT22;8829;47.932;7.810;2023-07-29T00:49:48;18.10;99.90
17423;DHT22;8829;47.932;7.810;2023-07-29T00:52:15;18.10;99.90
17423;DHT22;8829;47.932;7.810;2023-07-29T00:54:42;18.10;99.90
17423;DHT22;8829;47.932;7.810;2023-07-29T00:57:10;18.10;99.90
17423;DHT22;8829;47.932;7.810;2023-07-29T00:59:40;18.10;99.90
17423;DHT22;8829;47.932;7.810;2023-07-29T01:02:08;18.10;99.90
17423;DHT22;8829;47.932;7.810;2023-07-29T01:04:35;18.10;99.90
17423;DHT22;8829;47.932;7.810;2023-07-29T01:07:07;18.10;99.90
17423;DHT22;8829;47.932;7.810;2023-07-29T01:09:43;18.20;99.90
17423;DHT22;8829;47.932;7.810;2023-07-29T01:12:19;18.30;99.90
17423;DHT22;8829;47.932;7.810;2023-07-29T01:14:55;18.20;99.90
17423;DHT22;8829;47.932;7.810;2023-07-29T01:17:31;18.40;99.90
17423;DHT22;8829;47.932;7.810;2023-07-29T01:20:01;18.40;99.90
17423;DHT22;8829;47.932;7.810;2023-07-29T01:22:33;18.40;99.90
17423;DHT22;8829;47.932;7.810;2023-07-29T01:25:01;18.30;99.90
17423;DHT22;8829;47.932;7.810;2023-07-29T01:27:29;18.20;99.90
17423;DHT22;8829;47.932;7.810;2023-07-29T01:29:57;18.20;99.90
17423;DHT22;8829;47.932;7.810;2023-07-29T01:32:32;18.20;99.90
17423;DHT22;8829;47.932;7.810;2023-07-29T01:35:05;18.20;99.90
17423;DHT22;8829;47.932;7.810;2023-07-29T01:37:35;18.00;99.90
17423;DHT22;8829;47.932;7.810;2023-07-29T01:40:08;18.00;99.90
17423;DHT22;8829;47.932;7.810;2023-07-29T01:42:35;18.00;99.90
17423;DHT22;8829;47.932;7.810;2023-07-29T01:45:02;17.90;99.90
17423;DHT22;8829;47.932;7.810;2023-07-29T01:47:29;17.80;99.90
17423;DHT22;8829;47.932;7.810;2023-07-29T01:49:55;17.70;99.90
17423;DHT22;8829;47.932;7.810;2023-07-29T01:52:22;17.80;99.90
17423;DHT22;8829;47.932;7.810;2023-07-29T01:54:49;17.80;99.90
17423;DHT22;8829;47.932;7.810;2023-07-29T01:57:17;17.80;99.90
17423;DHT22;8829;47.932;7.810;2023-07-29T01:59:43;17.80;99.90
17423;DHT22;8829;47.932;7.810;2023-07-29T02:02:10;17.80;99.90
17423;DHT22;8829;47.932;7.810;2023-07-29T02:04:37;17.90;99.90
17423;DHT22;8829;47.932;7.810;2023-07-29T02:07:04;17.90;99.90
17423;DHT22;8829;47.932;7.810;2023-07-29T02:09:31;18.00;99.90
17423;DHT22;8829;47.932;7.810;2023-07-29T02:11:57;18.00;99.90
17423;DHT22;8829;47.932;7.810;2023-07-29T02:14:25;18.00;99.90
17423;DHT22;8829;47.932;7.810;2023-07-29T02:16:52;18.10;99.90
17423;DHT22;8829;47.932;7.810;2023-07-29T02:19:19;18.00;99.90
17423;DHT22;8829;47.932;7.810;2023-07-29T02:21:45;18.00;99.90
17423;DHT22;8829;47.932;7.810;2023-07-29T02:24:12;18.10;99.90
17423;DHT22;8829;47.932;7.810;2023-07-29T02:26:39;18.00;99.90
17423;DHT22;8829;47.932;7.810;2023-07-29T02:29:06;18.10;99.90
17423;DHT22;8829;47.932;7.810;2023-07-29T02:31:34;18.10;99.90
17423;DHT22;8829;47.932;7.810;2023-07-29T02:34:03;18.20;99.90
17423;DHT22;8829;47.932;7.810;2023-07-29T02:36:29;18.30;99.90
17423;DHT22;8829;47.932;7.810;2023-07-29T02:38:56;18.30;99.90
17423;DHT22;8829;47.932;7.810;2023-07-29T02:41:23;18.40;99.90
17423;DHT22;8829;47.932;7.810;2023-07-29T02:43:50;18.40;99.90
17423;DHT22;8829;47.932;7.810;2023-07-29T02:46:17;18.40;99.90
17423;DHT22;8829;47.932;7.810;2023-07-29T02:48:45;18.40;99.90
17423;DHT22;8829;47.932;7.810;2023-07-29T02:51:12;18.30;99.90
17423;DHT22;8829;47.932;7.810;2023-07-29T02:53:42;18.30;99.90
17423;DHT22;8829;47.932;7.810;2023-07-29T02:56:08;18.30;99.90
17423;DHT22;8829;47.932;7.810;2023-07-29T02:58:36;18.30;99.90
17423;DHT22;8829;47.932;7.810;2023-07-29T03:01:03;18.30;99.90
17423;DHT22;8829;47.932;7.810;2023-07-29T03:03:30;18.40;99.90
17423;DHT22;8829;47.932;7.810;2023-07-29T03:06:00;18.30;99.90
17423;DHT22;8829;47.932;7.810;2023-07-29T03:08:27;18.40;99.90
17423;DHT22;8829;47.932;7.810;2023-07-29T03:10:54;18.40;99.90
17423;DHT22;8829;47.932;7.810;2023-07-29T03:13:21;18.40;99.90
17423;DHT22;8829;47.932;7.810;2023-07-29T03:15:48;18.40;99.90
17423;DHT22;8829;47.932;7.810;2023-07-29T03:18:14;18.40;99.90
17423;DHT22;8829;47.932;7.810;2023-07-29T03:20:43;18.40;99.90
17423;DHT22;8829;47.932;7.810;2023-07-29T03:23:11;18.40;99.90
17423;DHT22;8829;47.932;7.810;2023-07-29T03:25:38;18.50;99.90
17423;DHT22;8829;47.932;7.810;2023-07-29T03:28:05;18.70;99.90
17423;DHT22;8829;47.932;7.810;2023-07-29T03:30:31;18.70;99.90
17423;DHT22;8829;47.932;7.810;2023-07-29T03:32:58;18.80;99.90
17423;DHT22;8829;47.932;7.810;2023-07-29T03:35:25;18.80;99.90
17423;DHT22;8829;47.932;7.810;2023-07-29T03:37:52;18.90;99.90
17423;DHT22;8829;47.932;7.810;2023-07-29T03:40:20;18.90;99.90
17423;DHT22;8829;47.932;7.810;2023-07-29T03:42:47;18.90;99.90
17423;DHT22;8829;47.932;7.810;2023-07-29T03:45:13;18.90;99.90
17423;DHT22;8829;47.932;7.810;2023-07-29T03:47:40;18.90;99.90
17423;DHT22;8829;47.932;7.810;2023-07-29T03:50:07;18.80;99.90
17423;DHT22;8829;47.932;7.810;2023-07-29T03:52:34;18.80;99.90
17423;DHT22;8829;47.932;7.810;2023-07-29T03:55:00;18.70;99.90
17423;DHT22;8829;47.932;7.810;2023-07-29T03:57:28;18.60;99.90
17423;DHT22;8829;47.932;7.810;2023-07-29T03:59:55;18.60;99.90
17423;DHT22;8829;47.932;7.810;2023-07-29T04:02:22;18.50;99.90
17423;DHT22;8829;47.932;7.810;2023-07-29T04:04:48;18.50;99.90
17423;DHT22;8829;47.932;7.810;2023-07-29T04:07:15;18.80;99.90
17423;DHT22;8829;47.932;7.810;2023-07-29T04:09:42;18.80;99.90
17423;DHT22;8829;47.932;7.810;2023-07-29T04:12:09;18.70;99.90
17423;DHT22;8829;47.932;7.810;2023-07-29T04:14:37;19.00;99.90
17423;DHT22;8829;47.932;7.810;2023-07-29T04:17:05;19.20;99.90
17423;DHT22;8829;47.932;7.810;2023-07-29T04:19:31;19.40;99.90
17423;DHT22;8829;47.932;7.810;2023-07-29T04:21:58;19.50;99.90
17423;DHT22;8829;47.932;7.810;2023-07-29T04:24:25;19.60;99.90
17423;DHT22;8829;47.932;7.810;2023-07-29T04:26:52;19.60;99.90
17423;DHT22;8829;47.932;7.810;2023-07-29T04:29:19;19.70;99.90
17423;DHT22;8829;47.932;7.810;2023-07-29T04:31:47;19.70;99.90
17423;DHT22;8829;47.932;7.810;2023-07-29T04:34:14;19.80;99.90
17423;DHT22;8829;47.932;7.810;2023-07-29T04:36:40;19.80;99.90
17423;DHT22;8829;47.932;7.810;2023-07-29T04:39:07;19.90;99.90
17423;DHT22;8829;47.932;7.810;2023-07-29T04:41:34;20.00;99.90
17423;DHT22;8829;47.932;7.810;2023-07-29T04:44:01;20.00;99.90
17423;DHT22;8829;47.932;7.810;2023-07-29T04:46:28;20.10;99.90
17423;DHT22;8829;47.932;7.810;2023-07-29T04:48:56;20.10;99.90
17423;DHT22;8829;47.932;7.810;2023-07-29T04:51:23;20.20;99.90
17423;DHT22;8829;47.932;7.810;2023-07-29T04:53:50;20.20;99.90
17423;DHT22;8829;47.932;7.810;2023-07-29T04:56:18;20.20;99.90
17423;DHT22;8829;47.932;7.810;2023-07-29T04:58:45;20.20;99.90
17423;DHT22;8829;47.932;7.810;2023-07-29T05:01:11;20.20;99.90
17423;DHT22;8829;47.932;7.810;2023-07-29T05:03:38;20.20;99.90
17423;DHT22;8829;47.932;7.810;2023-07-29T05:06:06;20.20;99.90
17423;DHT22;8829;47.932;7.810;2023-07-29T05:08:33;20.20;99.90
17423;DHT22;8829;47.932;7.810;2023-07-29T05:11:00;20.10;99.90
17423;DHT22;8829;47.932;7.810;2023-07-29T05:13:27;20.20;99.90
17423;DHT22;8829;47.932;7.810;2023-07-29T05:15:53;20.10;99.90
17423;DHT22;8829;47.932;7.810;2023-07-29T05:18:20;20.10;99.90
17423;DHT22;8829;47.932;7.810;2023-07-29T05:20:47;20.00;99.90
17423;DHT22;8829;47.932;7.810;2023-07-29T05:23:15;20.00;99.90
17423;DHT22;8829;47.932;7.810;2023-07-29T05:25:42;20.10;99.90
17423;DHT22;8829;47.932;7.810;2023-07-29T05:28:09;20.20;99.90
17423;DHT22;8829;47.932;7.810;2023-07-29T05:30:35;20.20;99.90
17423;DHT22;8829;47.932;7.810;2023-07-29T05:33:05;20.20;99.90
17423;DHT22;8829;47.932;7.810;2023-07-29T05:35:33;20.20;99.90
17423;DHT22;8829;47.932;7.810;2023-07-29T05:37:59;20.40;99.90
17423;DHT22;8829;47.932;7.810;2023-07-29T05:40:27;20.40;99.90
17423;DHT22;8829;47.932;7.810;2023-07-29T05:42:54;20.50;99.90
17423;DHT22;8829;47.932;7.810;2023-07-29T05:45:21;20.50;99.90
17423;DHT22;8829;47.932;7.810;2023-07-29T05:47:48;20.60;99.90
17423;DHT22;8829;47.932;7.810;2023-07-29T05:50:15;20.50;99.90
17423;DHT22;8829;47.932;7.810;2023-07-29T05:52:41;20.50;99.90
17423;DHT22;8829;47.932;7.810;2023-07-29T05:55:09;20.40;99.90
17423;DHT22;8829;47.932;7.810;2023-07-29T05:57:37;20.40;99.90
17423;DHT22;8829;47.932;7.810;2023-07-29T06:00:04;20.40;99.90
17423;DHT22;8829;47.932;7.810;2023-07-29T06:02:31;20.60;99.90
17423;DHT22;8829;47.932;7.810;2023-07-29T06:04:58;20.70;99.90
17423;DHT22;8829;47.932;7.810;2023-07-29T06:07:25;21.10;99.90
17423;DHT22;8829;47.932;7.810;2023-07-29T06:09:55;21.00;99.90
17423;DHT22;8829;47.932;7.810;2023-07-29T06:12:23;21.10;99.90
17423;DHT22;8829;47.932;7.810;2023-07-29T06:14:51;21.20;99.90
17423;DHT22;8829;47.932;7.810;2023-07-29T06:17:18;21.50;99.90
17423;DHT22;8829;47.932;7.810;2023-07-29T06:19:44;21.50;99.90
17423;DHT22;8829;47.932;7.810;2023-07-29T06:22:11;21.80;99.90
17423;DHT22;8829;47.932;7.810;2023-07-29T06:24:38;22.10;99.90
17423;DHT22;8829;47.932;7.810;2023-07-29T06:27:05;22.30;99.90
17423;DHT22;8829;47.932;7.810;2023-07-29T06:29:31;22.40;99.90
17423;DHT22;8829;47.932;7.810;2023-07-29T06:32:00;22.20;99.90
17423;DHT22;8829;47.932;7.810;2023-07-29T06:34:27;21.90;99.90
17423;DHT22;8829;47.932;7.810;2023-07-29T06:36:53;21.80;99.90
17423;DHT22;8829;47.932;7.810;2023-07-29T06:39:20;21.50;99.90
17423;DHT22;8829;47.932;7.810;2023-07-29T06:41:47;21.50;99.90
17423;DHT22;8829;47.932;7.810;2023-07-29T06:44:13;21.30;99.90
17423;DHT22;8829;47.932;7.810;2023-07-29T06:46:40;21.00;99.90
17423;DHT22;8829;47.932;7.810;2023-07-29T06:49:08;21.00;99.90
17423;DHT22;8829;47.932;7.810;2023-07-29T06:51:35;20.90;99.90
17423;DHT22;8829;47.932;7.810;2023-07-29T06:54:02;20.60;99.90
17423;DHT22;8829;47.932;7.810;2023-07-29T06:56:29;20.50;99.90
17423;DHT22;8829;47.932;7.810;2023-07-29T06:58:56;20.40;99.90
17423;DHT22;8829;47.932;7.810;2023-07-29T07:01:23;20.50;99.90
17423;DHT22;8829;47.932;7.810;2023-07-29T07:03:49;20.60;99.90
17423;DHT22;8829;47.932;7.810;2023-07-29T07:06:21;20.70;99.90
17423;DHT22;8829;47.932;7.810;2023-07-29T07:08:50;20.60;99.90
17423;DHT22;8829;47.932;7.810;2023-07-29T07:11:17;20.60;99.90
17423;DHT22;8829;47.932;7.810;2023-07-29T07:13:44;20.60;99.90
17423;DHT22;8829;47.932;7.810;2023-07-29T07:16:11;20.60;99.90
17423;DHT22;8829;47.932;7.810;2023-07-29T07:18:37;20.60;99.90
17423;DHT22;8829;47.932;7.810;2023-07-29T07:21:04;20.50;99.90
17423;DHT22;8829;47.932;7.810;2023-07-29T07:23:32;20.50;99.90
17423;DHT22;8829;47.932;7.810;2023-07-29T07:25:59;20.50;99.90
17423;DHT22;8829;47.932;7.810;2023-07-29T07:28:25;20.60;99.90
17423;DHT22;8829;47.932;7.810;2023-07-29T07:30:52;20.70;99.90
17423;DHT22;8829;47.932;7.810;2023-07-29T07:33:21;20.90;99.90
17423;DHT22;8829;47.932;7.810;2023-07-29T07:35:47;21.00;99.90
17423;DHT22;8829;47.932;7.810;2023-07-29T07:38:14;21.20;99.90
17423;DHT22;8829;47.932;7.810;2023-07-29T07:40:42;21.20;99.90
17423;DHT22;8829;47.932;7.810;2023-07-29T07:43:09;21.30;99.90
17423;DHT22;8829;47.932;7.810;2023-07-29T07:45:36;21.20;99.90
17423;DHT22;8829;47.932;7.810;2023-07-29T07:48:03;22.10;99.90
17423;DHT22;8829;47.932;7.810;2023-07-29T07:50:30;22.40;99.90
17423;DHT22;8829;47.932;7.810;2023-07-29T07:52:57;23.30;99.90
17423;DHT22;8829;47.932;7.810;2023-07-29T07:55:23;24.10;99.90
17423;DHT22;8829;47.932;7.810;2023-07-29T07:57:51;23.70;99.90
17423;DHT22;8829;47.932;7.810;2023-07-29T08:00:18;23.60;99.90
17423;DHT22;8829;47.932;7.810;2023-07-29T08:02:45;23.40;99.90
17423;DHT22;8829;47.932;7.810;2023-07-29T08:05:12;23.60;99.90
17423;DHT22;8829;47.932;7.810;2023-07-29T08:07:39;23.90;99.90
17423;DHT22;8829;47.932;7.810;2023-07-29T08:10:07;23.90;99.90
17423;DHT22;8829;47.932;7.810;2023-07-29T08:12:34;24.00;99.90
17423;DHT22;8829;47.932;7.810;2023-07-29T08:15:02;23.80;99.90
17423;DHT22;8829;47.932;7.810;2023-07-29T08:17:29;23.20;99.90
17423;DHT22;8829;47.932;7.810;2023-07-29T08:19:56;23.20;99.90
17423;DHT22;8829;47.932;7.810;2023-07-29T08:22:22;23.10;99.90
17423;DHT22;8829;47.932;7.810;2023-07-29T08:24:49;23.10;99.90
17423;DHT22;8829;47.932;7.810;2023-07-29T08:27:16;24.20;99.90
17423;DHT22;8829;47.932;7.810;2023-07-29T08:29:42;24.20;99.90
17423;DHT22;8829;47.932;7.810;2023-07-29T08:32:10;24.70;99.90
17423;DHT22;8829;47.932;7.810;2023-07-29T08:34:38;24.90;99.90
17423;DHT22;8829;47.932;7.810;2023-07-29T08:37:05;25.10;99.90
17423;DHT22;8829;47.932;7.810;2023-07-29T08:39:32;24.90;99.90
17423;DHT22;8829;47.932;7.810;2023-07-29T08:42:01;24.40;99.90
17423;DHT22;8829;47.932;7.810;2023-07-29T08:44:34;24.00;99.90
17423;DHT22;8829;47.932;7.810;2023-07-29T08:47:02;23.60;99.90
17423;DHT22;8829;47.932;7.810;2023-07-29T08:49:30;23.30;99.90
17423;DHT22;8829;47.932;7.810;2023-07-29T08:51:58;23.40;99.90
17423;DHT22;8829;47.932;7.810;2023-07-29T08:54:25;23.50;99.90
17423;DHT22;8829;47.932;7.810;2023-07-29T08:56:52;23.40;99.90
17423;DHT22;8829;47.932;7.810;2023-07-29T08:59:19;23.30;99.90
17423;DHT22;8829;47.932;7.810;2023-07-29T09:01:47;23.30;99.90
17423;DHT22;8829;47.932;7.810;2023-07-29T09:04:14;23.40;99.90
17423;DHT22;8829;47.932;7.810;2023-07-29T09:06:43;23.40;99.90
17423;DHT22;8829;47.932;7.810;2023-07-29T09:09:10;23.40;99.90
17423;DHT22;8829;47.932;7.810;2023-07-29T09:11:37;23.30;99.90
17423;DHT22;8829;47.932;7.810;2023-07-29T09:14:04;23.20;99.90
17423;DHT22;8829;47.932;7.810;2023-07-29T09:16:31;23.20;99.90
17423;DHT22;8829;47.932;7.810;2023-07-29T09:19:01;23.20;99.90
17423;DHT22;8829;47.932;7.810;2023-07-29T09:21:29;23.30;99.90
17423;DHT22;8829;47.932;7.810;2023-07-29T09:23:57;23.40;99.90
17423;DHT22;8829;47.932;7.810;2023-07-29T09:26:27;23.50;99.90
17423;DHT22;8829;47.932;7.810;2023-07-29T09:28:55;23.50;99.90
17423;DHT22;8829;47.932;7.810;2023-07-29T09:31:23;23.80;99.90
17423;DHT22;8829;47.932;7.810;2023-07-29T09:33:50;24.00;99.90
17423;DHT22;8829;47.932;7.810;2023-07-29T09:36:21;24.20;99.90
17423;DHT22;8829;47.932;7.810;2023-07-29T09:38:50;24.40;99.90
17423;DHT22;8829;47.932;7.810;2023-07-29T09:41:22;24.60;99.90
17423;DHT22;8829;47.932;7.810;2023-07-29T09:43:55;24.50;99.90
17423;DHT22;8829;47.932;7.810;2023-07-29T09:46:23;24.50;99.90
17423;DHT22;8829;47.932;7.810;2023-07-29T09:48:53;24.60;99.90
17423;DHT22;8829;47.932;7.810;2023-07-29T09:51:21;24.60;99.90
17423;DHT22;8829;47.932;7.810;2023-07-29T09:53:49;24.70;99.90
17423;DHT22;8829;47.932;7.810;2023-07-29T09:56:16;24.60;99.90
17423;DHT22;8829;47.932;7.810;2023-07-29T09:58:44;24.70;99.90
17423;DHT22;8829;47.932;7.810;2023-07-29T10:01:12;24.70;99.90
17423;DHT22;8829;47.932;7.810;2023-07-29T10:03:39;25.00;99.90
17423;DHT22;8829;47.932;7.810;2023-07-29T10:06:07;25.10;99.90
17423;DHT22;8829;47.932;7.810;2023-07-29T10:08:33;25.20;99.90
17423;DHT22;8829;47.932;7.810;2023-07-29T10:11:05;25.20;99.90
17423;DHT22;8829;47.932;7.810;2023-07-29T10:13:32;25.30;99.90
17423;DHT22;8829;47.932;7.810;2023-07-29T10:16:00;25.40;99.90
17423;DHT22;8829;47.932;7.810;2023-07-29T10:18:29;25.60;99.90
17423;DHT22;8829;47.932;7.810;2023-07-29T10:20:57;25.60;99.90
17423;DHT22;8829;47.932;7.810;2023-07-29T10:23:26;25.70;99.90
17423;DHT22;8829;47.932;7.810;2023-07-29T10:25:57;25.80;99.90
17423;DHT22;8829;47.932;7.810;2023-07-29T10:28:26;25.70;99.90
17423;DHT22;8829;47.932;7.810;2023-07-29T10:30:56;25.70;99.90
17423;DHT22;8829;47.932;7.810;2023-07-29T10:33:24;25.80;99.90
17423;DHT22;8829;47.932;7.810;2023-07-29T10:35:52;25.90;99.90
17423;DHT22;8829;47.932;7.810;2023-07-29T10:38:20;26.00;99.90
17423;DHT22;8829;47.932;7.810;2023-07-29T10:40:51;26.10;99.90
17423;DHT22;8829;47.932;7.810;2023-07-29T10:43:20;26.10;99.90
17423;DHT22;8829;47.932;7.810;2023-07-29T10:45:50;26.10;99.90
17423;DHT22;8829;47.932;7.810;2023-07-29T10:48:43;26.10;99.90
17423;DHT22;8829;47.932;7.810;2023-07-29T10:51:26;26.20;99.90
17423;DHT22;8829;47.932;7.810;2023-07-29T10:53:56;26.30;99.90
17423;DHT22;8829;47.932;7.810;2023-07-29T10:56:31;26.60;99.90
17423;DHT22;8829;47.932;7.810;2023-07-29T10:59:01;26.90;99.90
17423;DHT22;8829;47.932;7.810;2023-07-29T11:01:29;27.10;99.90
17423;DHT22;8829;47.932;7.810;2023-07-29T11:04:45;27.30;99.90
17423;DHT22;8829;47.932;7.810;2023-07-29T11:07:23;27.00;99.90
17423;DHT22;8829;47.932;7.810;2023-07-29T11:10:00;27.00;99.90
17423;DHT22;8829;47.932;7.810;2023-07-29T11:12:36;26.80;99.90
17423;DHT22;8829;47.932;7.810;2023-07-29T11:15:04;26.70;99.90
17423;DHT22;8829;47.932;7.810;2023-07-29T11:17:32;26.50;99.90
17423;DHT22;8829;47.932;7.810;2023-07-29T11:20:02;26.50;99.90
17423;DHT22;8829;47.932;7.810;2023-07-29T11:22:29;26.10;99.90
17423;DHT22;8829;47.932;7.810;2023-07-29T11:24:56;26.20;99.90
17423;DHT22;8829;47.932;7.810;2023-07-29T11:27:23;26.10;99.90
17423;DHT22;8829;47.932;7.810;2023-07-29T11:29:50;26.00;99.90
17423;DHT22;8829;47.932;7.810;2023-07-29T11:32:16;26.20;99.90
17423;DHT22;8829;47.932;7.810;2023-07-29T11:34:43;26.30;99.90
17423;DHT22;8829;47.932;7.810;2023-07-29T11:37:11;26.30;99.90
17423;DHT22;8829;47.932;7.810;2023-07-29T11:39:39;26.40;99.90
17423;DHT22;8829;47.932;7.810;2023-07-29T11:42:10;26.60;99.90
17423;DHT22;8829;47.932;7.810;2023-07-29T11:44:37;26.60;99.90
17423;DHT22;8829;47.932;7.810;2023-07-29T11:47:06;26.80;99.90
17423;DHT22;8829;47.932;7.810;2023-07-29T11:49:33;26.70;99.90
17423;DHT22;8829;47.932;7.810;2023-07-29T11:52:00;26.80;99.90
17423;DHT22;8829;47.932;7.810;2023-07-29T11:54:28;26.50;99.90
17423;DHT22;8829;47.932;7.810;2023-07-29T11:56:55;26.50;99.90
17423;DHT22;8829;47.932;7.810;2023-07-29T11:59:23;26.60;99.90
17423;DHT22;8829;47.932;7.810;2023-07-29T12:01:49;26.60;99.90
17423;DHT22;8829;47.932;7.810;2023-07-29T12:04:16;26.50;99.90
17423;DHT22;8829;47.932;7.810;2023-07-29T12:06:43;26.50;99.90
17423;DHT22;8829;47.932;7.810;2023-07-29T12:09:10;26.50;99.90
17423;DHT22;8829;47.932;7.810;2023-07-29T12:11:40;26.60;99.90
17423;DHT22;8829;47.932;7.810;2023-07-29T12:14:07;26.60;99.90
17423;DHT22;8829;47.932;7.810;2023-07-29T12:16:40;26.40;99.90
17423;DHT22;8829;47.932;7.810;2023-07-29T12:19:07;26.40;99.90
17423;DHT22;8829;47.932;7.810;2023-07-29T12:21:34;26.40;99.90
17423;DHT22;8829;47.932;7.810;2023-07-29T12:24:02;26.40;99.90
17423;DHT22;8829;47.932;7.810;2023-07-29T12:26:29;26.30;99.90
17423;DHT22;8829;47.932;7.810;2023-07-29T12:28:57;26.40;99.90
17423;DHT22;8829;47.932;7.810;2023-07-29T12:31:31;26.40;99.90
17423;DHT22;8829;47.932;7.810;2023-07-29T12:33:58;26.50;99.90
17423;DHT22;8829;47.932;7.810;2023-07-29T12:36:27;26.40;99.90
17423;DHT22;8829;47.932;7.810;2023-07-29T12:39:06;26.30;99.90
17423;DHT22;8829;47.932;7.810;2023-07-29T12:41:33;26.00;99.90
17423;DHT22;8829;47.932;7.810;2023-07-29T12:44:01;26.00;99.90
17423;DHT22;8829;47.932;7.810;2023-07-29T12:46:29;25.90;99.90
17423;DHT22;8829;47.932;7.810;2023-07-29T12:48:56;25.80;99.90
17423;DHT22;8829;47.932;7.810;2023-07-29T12:51:22;25.70;99.90
17423;DHT22;8829;47.932;7.810;2023-07-29T12:53:49;25.70;99.90
17423;DHT22;8829;47.932;7.810;2023-07-29T12:56:16;25.80;99.90
17423;DHT22;8829;47.932;7.810;2023-07-29T12:58:42;25.70;99.90
17423;DHT22;8829;47.932;7.810;2023-07-29T13:01:10;25.80;99.90
17423;DHT22;8829;47.932;7.810;2023-07-29T13:03:42;25.80;99.90
17423;DHT22;8829;47.932;7.810;2023-07-29T13:06:08;25.70;99.90
17423;DHT22;8829;47.932;7.810;2023-07-29T13:08:35;25.50;99.90
17423;DHT22;8829;47.932;7.810;2023-07-29T13:11:02;25.50;99.90
17423;DHT22;8829;47.932;7.810;2023-07-29T13:13:29;25.50;99.90
17423;DHT22;8829;47.932;7.810;2023-07-29T13:15:57;25.50;99.90
17423;DHT22;8829;47.932;7.810;2023-07-29T13:18:25;25.60;99.90
17423;DHT22;8829;47.932;7.810;2023-07-29T13:20:51;25.70;99.90
17423;DHT22;8829;47.932;7.810;2023-07-29T13:23:18;25.80;99.90
17423;DHT22;8829;47.932;7.810;2023-07-29T13:25:45;25.80;99.90
17423;DHT22;8829;47.932;7.810;2023-07-29T13:28:11;25.90;99.90
17423;DHT22;8829;47.932;7.810;2023-07-29T13:30:39;26.00;99.90
17423;DHT22;8829;47.932;7.810;2023-07-29T13:33:06;25.90;99.90
17423;DHT22;8829;47.932;7.810;2023-07-29T13:35:34;26.00;99.90
17423;DHT22;8829;47.932;7.810;2023-07-29T13:38:02;25.80;99.90
17423;DHT22;8829;47.932;7.810;2023-07-29T13:40:29;26.00;99.90
17423;DHT22;8829;47.932;7.810;2023-07-29T13:42:56;25.80;99.90
17423;DHT22;8829;47.932;7.810;2023-07-29T13:45:23;25.80;99.90
17423;DHT22;8829;47.932;7.810;2023-07-29T13:47:49;25.90;99.90
17423;DHT22;8829;47.932;7.810;2023-07-29T13:50:16;25.80;99.90
17423;DHT22;8829;47.932;7.810;2023-07-29T13:52:45;25.80;99.90
17423;DHT22;8829;47.932;7.810;2023-07-29T13:55:12;25.80;99.90
17423;DHT22;8829;47.932;7.810;2023-07-29T13:57:38;25.80;99.90
17423;DHT22;8829;47.932;7.810;2023-07-29T14:00:07;25.70;99.90
17423;DHT22;8829;47.932;7.810;2023-07-29T14:02:34;25.60;99.90
17423;DHT22;8829;47.932;7.810;2023-07-29T14:05:00;25.40;99.90
17423;DHT22;8829;47.932;7.810;2023-07-29T14:07:27;25.20;99.90
17423;DHT22;8829;47.932;7.810;2023-07-29T14:09:55;25.20;99.90
17423;DHT22;8829;47.932;7.810;2023-07-29T14:12:22;25.10;99.90
17423;DHT22;8829;47.932;7.810;2023-07-29T14:14:48;24.90;99.90
17423;DHT22;8829;47.932;7.810;2023-07-29T14:17:15;24.50;99.90
17423;DHT22;8829;47.932;7.810;2023-07-29T14:19:42;24.50;99.90
17423;DHT22;8829;47.932;7.810;2023-07-29T14:22:09;24.20;99.90
17423;DHT22;8829;47.932;7.810;2023-07-29T14:24:38;23.90;99.90
17423;DHT22;8829;47.932;7.810;2023-07-29T14:27:07;24.00;99.90
17423;DHT22;8829;47.932;7.810;2023-07-29T14:29:33;23.80;99.90
17423;DHT22;8829;47.932;7.810;2023-07-29T14:32:00;23.70;99.90
17423;DHT22;8829;47.932;7.810;2023-07-29T14:34:27;23.70;99.90
17423;DHT22;8829;47.932;7.810;2023-07-29T14:36:54;23.70;99.90
17423;DHT22;8829;47.932;7.810;2023-07-29T14:39:21;23.60;99.90
17423;DHT22;8829;47.932;7.810;2023-07-29T14:41:48;23.10;99.90
17423;DHT22;8829;47.932;7.810;2023-07-29T14:44:16;22.90;99.90
17423;DHT22;8829;47.932;7.810;2023-07-29T14:46:43;23.00;99.90
17423;DHT22;8829;47.932;7.810;2023-07-29T14:49:10;23.00;99.90
17423;DHT22;8829;47.932;7.810;2023-07-29T14:51:37;23.10;99.90
17423;DHT22;8829;47.932;7.810;2023-07-29T14:54:04;23.00;99.90
17423;DHT22;8829;47.932;7.810;2023-07-29T14:56:30;23.10;99.90
17423;DHT22;8829;47.932;7.810;2023-07-29T14:58:57;23.20;99.90
17423;DHT22;8829;47.932;7.810;2023-07-29T15:01:25;23.30;99.90
17423;DHT22;8829;47.932;7.810;2023-07-29T15:03:52;23.30;99.90
17423;DHT22;8829;47.932;7.810;2023-07-29T15:06:18;23.20;99.90
17423;DHT22;8829;47.932;7.810;2023-07-29T15:08:45;23.10;99.90
17423;DHT22;8829;47.932;7.810;2023-07-29T15:11:12;23.10;99.90
17423;DHT22;8829;47.932;7.810;2023-07-29T15:13:38;23.00;99.90
17423;DHT22;8829;47.932;7.810;2023-07-29T15:16:05;23.00;99.90
17423;DHT22;8829;47.932;7.810;2023-07-29T15:18:33;23.10;99.90
17423;DHT22;8829;47.932;7.810;2023-07-29T15:21:00;23.20;99.90
17423;DHT22;8829;47.932;7.810;2023-07-29T15:23:27;23.30;99.90
17423;DHT22;8829;47.932;7.810;2023-07-29T15:25:54;23.20;99.90
17423;DHT22;8829;47.932;7.810;2023-07-29T15:28:21;23.10;99.90
17423;DHT22;8829;47.932;7.810;2023-07-29T15:30:48;23.10;99.90
17423;DHT22;8829;47.932;7.810;2023-07-29T15:33:15;23.10;99.90
17423;DHT22;8829;47.932;7.810;2023-07-29T15:35:43;23.30;99.90
17423;DHT22;8829;47.932;7.810;2023-07-29T15:38:09;23.40;99.90
17423;DHT22;8829;47.932;7.810;2023-07-29T15:40:37;23.40;99.90
17423;DHT22;8829;47.932;7.810;2023-07-29T15:43:04;23.50;99.90
17423;DHT22;8829;47.932;7.810;2023-07-29T15:45:31;23.50;99.90
17423;DHT22;8829;47.932;7.810;2023-07-29T15:47:58;23.40;99.90